sensor_id;sensor_type;location;lat;lon;timestamp;pressure;altitude;pressure_sealevel;temperature;humidity
9889;BME280;4983;42.112;24.738;2023-12-28T00:02:00;100844.31;;;6.76;58.10
9889;BME280;4983;42.112;24.738;2023-12-28T00:04:25;100839.75;;;6.67;58.43
9889;BME280;4983;42.112;24.738;2023-12-28T00:06:53;100839.19;;;6.63;57.90
9889;BME280;4983;42.112;24.738;2023-12-28T00:09:18;100836.44;;;6.65;58.72
9889;BME280;4983;42.112;24.738;2023-12-28T00:11:44;100839.97;;;6.75;57.70
9889;BME280;4983;42.112;24.738;2023-12-28T00:14:09;100842.25;;;6.79;58.37
9889;BME280;4983;42.112;24.738;2023-12-28T00:16:35;100847.50;;;6.68;58.60
9889;BME280;4983;42.112;24.738;2023-12-28T00:19:06;100850.88;;;6.70;57.89
9889;BME280;4983;42.112;24.738;2023-12-28T00:21:32;100851.91;;;6.46;58.17
9889;BME280;4983;42.112;24.738;2023-12-28T00:23:57;100863.28;;;5.89;60.50
9889;BME280;4983;42.112;24.738;2023-12-28T00:26:23;100859.75;;;6.12;59.41
9889;BME280;4983;42.112;24.738;2023-12-28T00:28:48;100874.09;;;6.42;59.65
9889;BME280;4983;42.112;24.738;2023-12-28T00:31:14;100873.41;;;6.51;59.81
9889;BME280;4983;42.112;24.738;2023-12-28T00:33:39;100869.09;;;6.50;60.01
9889;BME280;4983;42.112;24.738;2023-12-28T00:36:05;100889.72;;;6.65;58.46
9889;BME280;4983;42.112;24.738;2023-12-28T00:38:30;100884.13;;;6.59;59.40
9889;BME280;4983;42.112;24.738;2023-12-28T00:40:57;100893.31;;;6.75;58.91
9889;BME280;4983;42.112;24.738;2023-12-28T00:43:22;100897.97;;;6.83;57.98
9889;BME280;4983;42.112;24.738;2023-12-28T00:45:48;100906.31;;;6.99;58.55
9889;BME280;4983;42.112;24.738;2023-12-28T00:48:14;100907.75;;;7.03;57.65
9889;BME280;4983;42.112;24.738;2023-12-28T00:50:39;100899.88;;;6.81;58.42
9889;BME280;4983;42.112;24.738;2023-12-28T00:53:05;100916.81;;;6.88;56.72
9889;BME280;4983;42.112;24.738;2023-12-28T00:55:30;100921.59;;;6.94;57.77
9889;BME280;4983;42.112;24.738;2023-12-28T00:57:56;100916.09;;;6.75;57.03
9889;BME280;4983;42.112;24.738;2023-12-28T01:00:21;100916.72;;;6.78;57.27
9889;BME280;4983;42.112;24.738;2023-12-28T01:02:47;100919.91;;;6.71;56.88
9889;BME280;4983;42.112;24.738;2023-12-28T01:05:13;100923.50;;;6.70;57.19
9889;BME280;4983;42.112;24.738;2023-12-28T01:07:39;100917.28;;;6.60;57.77
9889;BME280;4983;42.112;24.738;2023-12-28T01:10:05;100917.88;;;6.41;58.46
9889;BME280;4983;42.112;24.738;2023-12-28T01:12:31;100922.63;;;6.58;57.83
9889;BME280;4983;42.112;24.738;2023-12-28T01:14:56;100924.63;;;6.33;57.81
9889;BME280;4983;42.112;24.738;2023-12-28T01:17:21;100911.88;;;6.28;58.45
9889;BME280;4983;42.112;24.738;2023-12-28T01:19:47;100908.63;;;6.24;58.11
9889;BME280;4983;42.112;24.738;2023-12-28T01:22:12;100913.97;;;6.23;58.84
9889;BME280;4983;42.112;24.738;2023-12-28T01:24:38;100910.44;;;6.24;58.35
9889;BME280;4983;42.112;24.738;2023-12-28T01:27:03;100909.56;;;6.12;58.55
9889;BME280;4983;42.112;24.738;2023-12-28T01:29:29;100919.22;;;6.23;58.89
9889;BME280;4983;42.112;24.738;2023-12-28T01:31:55;100915.69;;;6.24;59.21
9889;BME280;4983;42.112;24.738;2023-12-28T01:34:20;100912.94;;;6.26;58.85
9889;BME280;4983;42.112;24.738;2023-12-28T01:36:46;100916.25;;;6.28;59.09
9889;BME280;4983;42.112;24.738;2023-12-28T01:39:11;100916.94;;;6.07;58.66
9889;BME280;4983;42.112;24.738;2023-12-28T01:41:37;100911.78;;;5.95;59.43
9889;BME280;4983;42.112;24.738;2023-12-28T01:44:02;100917.50;;;5.53;61.33
9889;BME280;4983;42.112;24.738;2023-12-28T01:46:28;100915.31;;;5.70;60.37
9889;BME280;4983;42.112;24.738;2023-12-28T01:48:55;100912.47;;;5.73;59.42
9889;BME280;4983;42.112;24.738;2023-12-28T01:51:20;100911.84;;;5.82;59.04
9889;BME280;4983;42.112;24.738;2023-12-28T01:53:47;100924.28;;;5.79;59.03
9889;BME280;4983;42.112;24.738;2023-12-28T01:56:15;100922.22;;;5.71;59.91
9889;BME280;4983;42.112;24.738;2023-12-28T01:58:42;100923.97;;;5.60;59.84
9889;BME280;4983;42.112;24.738;2023-12-28T02:01:10;100919.06;;;5.55;59.26
9889;BME280;4983;42.112;24.738;2023-12-28T02:03:35;100928.50;;;5.45;59.40
9889;BME280;4983;42.112;24.738;2023-12-28T02:06:01;100927.50;;;5.35;60.03
9889;BME280;4983;42.112;24.738;2023-12-28T02:08:27;100920.81;;;5.31;60.39
9889;BME280;4983;42.112;24.738;2023-12-28T02:10:53;100924.16;;;5.33;60.31
9889;BME280;4983;42.112;24.738;2023-12-28T02:13:21;100931.50;;;5.28;60.37
9889;BME280;4983;42.112;24.738;2023-12-28T02:15:48;100929.63;;;5.30;60.16
9889;BME280;4983;42.112;24.738;2023-12-28T02:18:21;100930.19;;;5.10;60.61
9889;BME280;4983;42.112;24.738;2023-12-28T02:20:49;100932.19;;;5.07;60.82
9889;BME280;4983;42.112;24.738;2023-12-28T02:23:15;100934.91;;;5.05;60.84
9889;BME280;4983;42.112;24.738;2023-12-28T02:25:41;100907.00;;;4.81;61.13
9889;BME280;4983;42.112;24.738;2023-12-28T02:28:07;100926.22;;;4.92;61.02
9889;BME280;4983;42.112;24.738;2023-12-28T02:30:32;100927.19;;;4.91;60.90
9889;BME280;4983;42.112;24.738;2023-12-28T02:33:24;100931.47;;;4.92;60.47
9889;BME280;4983;42.112;24.738;2023-12-28T02:36:02;100923.44;;;4.70;61.01
9889;BME280;4983;42.112;24.738;2023-12-28T02:38:33;100930.00;;;4.88;60.75
9889;BME280;4983;42.112;24.738;2023-12-28T02:41:02;100928.97;;;4.78;60.66
9889;BME280;4983;42.112;24.738;2023-12-28T02:43:28;100935.44;;;4.85;61.11
9889;BME280;4983;42.112;24.738;2023-12-28T02:45:54;100944.44;;;4.94;60.99
9889;BME280;4983;42.112;24.738;2023-12-28T02:48:20;100951.34;;;4.95;61.07
9889;BME280;4983;42.112;24.738;2023-12-28T02:50:45;100928.56;;;4.72;61.36
9889;BME280;4983;42.112;24.738;2023-12-28T02:53:12;100947.38;;;4.77;61.54
9889;BME280;4983;42.112;24.738;2023-12-28T02:55:37;100944.03;;;4.75;61.81
9889;BME280;4983;42.112;24.738;2023-12-28T02:58:03;100946.66;;;4.75;62.32
9889;BME280;4983;42.112;24.738;2023-12-28T03:00:29;100956.16;;;4.88;62.09
9889;BME280;4983;42.112;24.738;2023-12-28T03:02:54;100946.75;;;4.98;61.28
9889;BME280;4983;42.112;24.738;2023-12-28T03:05:20;100950.53;;;4.94;61.09
9889;BME280;4983;42.112;24.738;2023-12-28T03:07:45;100950.75;;;4.79;61.08
9889;BME280;4983;42.112;24.738;2023-12-28T03:10:11;100956.47;;;4.71;61.94
9889;BME280;4983;42.112;24.738;2023-12-28T03:12:37;100961.63;;;4.60;62.07
9889;BME280;4983;42.112;24.738;2023-12-28T03:15:04;100951.59;;;4.54;62.34
9889;BME280;4983;42.112;24.738;2023-12-28T03:17:30;100962.13;;;4.40;62.39
9889;BME280;4983;42.112;24.738;2023-12-28T03:19:58;100949.06;;;4.40;61.11
9889;BME280;4983;42.112;24.738;2023-12-28T03:22:23;100948.50;;;4.35;61.15
9889;BME280;4983;42.112;24.738;2023-12-28T03:24:49;100947.91;;;4.44;60.45
9889;BME280;4983;42.112;24.738;2023-12-28T03:27:14;100922.06;;;4.27;60.15
9889;BME280;4983;42.112;24.738;2023-12-28T03:29:43;100934.28;;;4.39;60.01
9889;BME280;4983;42.112;24.738;2023-12-28T03:32:09;100933.47;;;4.39;60.51
9889;BME280;4983;42.112;24.738;2023-12-28T03:34:34;100929.16;;;4.25;60.04
9889;BME280;4983;42.112;24.738;2023-12-28T03:37:00;100927.28;;;4.27;59.64
9889;BME280;4983;42.112;24.738;2023-12-28T03:39:26;100921.00;;;4.17;59.96
9889;BME280;4983;42.112;24.738;2023-12-28T03:41:51;100907.25;;;3.89;60.73
9889;BME280;4983;42.112;24.738;2023-12-28T03:44:21;100923.88;;;4.00;61.03
9889;BME280;4983;42.112;24.738;2023-12-28T03:46:50;100919.81;;;4.09;61.33
9889;BME280;4983;42.112;24.738;2023-12-28T03:49:19;100932.06;;;4.08;60.58
9889;BME280;4983;42.112;24.738;2023-12-28T03:51:45;100940.13;;;4.05;61.25
9889;BME280;4983;42.112;24.738;2023-12-28T03:54:12;100938.94;;;3.97;61.44
9889;BME280;4983;42.112;24.738;2023-12-28T03:56:37;100941.16;;;4.03;61.82
9889;BME280;4983;42.112;24.738;2023-12-28T03:59:05;100942.31;;;4.24;60.99
9889;BME280;4983;42.112;24.738;2023-12-28T04:01:32;100949.66;;;4.19;60.85
9889;BME280;4983;42.112;24.738;2023-12-28T04:03:57;100938.78;;;4.25;60.73
9889;BME280;4983;42.112;24.738;2023-12-28T04:06:23;100941.09;;;4.29;60.50
9889;BME280;4983;42.112;24.738;2023-12-28T04:08:48;100932.09;;;4.21;60.76
9889;BME280;4983;42.112;24.738;2023-12-28T04:11:14;100934.47;;;4.11;60.79
9889;BME280;4983;42.112;24.738;2023-12-28T04:13:40;100940.44;;;4.13;61.56
9889;BME280;4983;42.112;24.738;2023-12-28T04:16:05;100944.81;;;4.13;60.81
9889;BME280;4983;42.112;24.738;2023-12-28T04:18:31;100954.66;;;4.09;60.56
9889;BME280;4983;42.112;24.738;2023-12-28T04:20:57;100959.38;;;4.17;60.63
9889;BME280;4983;42.112;24.738;2023-12-28T04:23:23;100950.38;;;4.08;60.38
9889;BME280;4983;42.112;24.738;2023-12-28T04:25:48;100941.59;;;4.09;60.92
9889;BME280;4983;42.112;24.738;2023-12-28T04:28:14;100959.38;;;4.17;60.53
9889;BME280;4983;42.112;24.738;2023-12-28T04:30:39;100951.13;;;4.23;61.04
9889;BME280;4983;42.112;24.738;2023-12-28T04:33:05;100956.13;;;4.13;60.71
9889;BME280;4983;42.112;24.738;2023-12-28T04:35:30;100960.75;;;4.22;60.96
9889;BME280;4983;42.112;24.738;2023-12-28T04:37:56;100976.94;;;4.15;62.21
9889;BME280;4983;42.112;24.738;2023-12-28T04:40:21;100961.44;;;4.12;64.15
9889;BME280;4983;42.112;24.738;2023-12-28T04:42:47;100972.22;;;4.20;64.07
9889;BME280;4983;42.112;24.738;2023-12-28T04:45:13;100974.72;;;4.21;63.72
9889;BME280;4983;42.112;24.738;2023-12-28T04:47:38;100960.75;;;4.22;65.08
9889;BME280;4983;42.112;24.738;2023-12-28T04:50:04;100972.16;;;4.34;65.66
9889;BME280;4983;42.112;24.738;2023-12-28T04:52:30;100967.88;;;4.45;64.98
9889;BME280;4983;42.112;24.738;2023-12-28T04:54:56;100968.19;;;4.53;65.31
9889;BME280;4983;42.112;24.738;2023-12-28T04:57:22;100965.94;;;4.74;64.77
9889;BME280;4983;42.112;24.738;2023-12-28T04:59:51;100965.91;;;4.86;64.76
9889;BME280;4983;42.112;24.738;2023-12-28T05:02:17;100954.41;;;4.89;64.58
9889;BME280;4983;42.112;24.738;2023-12-28T05:04:43;100963.41;;;4.97;64.07
9889;BME280;4983;42.112;24.738;2023-12-28T05:07:08;100965.47;;;5.05;63.96
9889;BME280;4983;42.112;24.738;2023-12-28T05:09:34;100962.31;;;5.12;62.43
9889;BME280;4983;42.112;24.738;2023-12-28T05:11:59;100967.69;;;4.98;61.35
9889;BME280;4983;42.112;24.738;2023-12-28T05:14:25;100955.56;;;4.72;61.58
9889;BME280;4983;42.112;24.738;2023-12-28T05:16:50;100960.69;;;4.74;61.91
9889;BME280;4983;42.112;24.738;2023-12-28T05:19:16;100959.31;;;4.68;62.39
9889;BME280;4983;42.112;24.738;2023-12-28T05:21:41;100941.75;;;4.70;62.54
9889;BME280;4983;42.112;24.738;2023-12-28T05:24:07;100946.13;;;4.57;62.96
9889;BME280;4983;42.112;24.738;2023-12-28T05:26:32;100952.50;;;4.53;63.30
9889;BME280;4983;42.112;24.738;2023-12-28T05:28:58;100947.47;;;4.63;63.05
9889;BME280;4983;42.112;24.738;2023-12-28T05:31:23;100945.38;;;4.30;64.44
9889;BME280;4983;42.112;24.738;2023-12-28T05:33:49;100950.72;;;4.41;63.54
9889;BME280;4983;42.112;24.738;2023-12-28T05:36:14;100952.19;;;4.45;63.42
9889;BME280;4983;42.112;24.738;2023-12-28T05:38:40;100956.06;;;4.40;63.86
9889;BME280;4983;42.112;24.738;2023-12-28T05:41:06;100942.78;;;4.43;64.42
9889;BME280;4983;42.112;24.738;2023-12-28T05:43:31;100955.41;;;4.36;65.12
9889;BME280;4983;42.112;24.738;2023-12-28T05:45:57;100951.69;;;4.40;65.02
9889;BME280;4983;42.112;24.738;2023-12-28T05:48:22;100964.31;;;4.59;64.84
9889;BME280;4983;42.112;24.738;2023-12-28T05:50:48;100963.06;;;4.64;64.35
9889;BME280;4983;42.112;24.738;2023-12-28T05:53:14;100963.19;;;4.63;64.56
9889;BME280;4983;42.112;24.738;2023-12-28T05:55:40;100957.44;;;4.70;63.51
9889;BME280;4983;42.112;24.738;2023-12-28T05:58:06;100966.94;;;4.59;64.14
9889;BME280;4983;42.112;24.738;2023-12-28T06:00:32;100971.47;;;4.57;64.00
9889;BME280;4983;42.112;24.738;2023-12-28T06:02:57;100975.84;;;4.56;63.75
9889;BME280;4983;42.112;24.738;2023-12-28T06:05:23;100980.22;;;4.43;63.86
9889;BME280;4983;42.112;24.738;2023-12-28T06:07:48;100986.09;;;4.59;64.05
9889;BME280;4983;42.112;24.738;2023-12-28T06:10:14;100979.41;;;4.55;64.21
9889;BME280;4983;42.112;24.738;2023-12-28T06:12:39;100981.16;;;4.42;64.81
9889;BME280;4983;42.112;24.738;2023-12-28T06:15:06;100986.47;;;4.41;64.02
9889;BME280;4983;42.112;24.738;2023-12-28T06:17:31;100987.38;;;4.79;63.17
9889;BME280;4983;42.112;24.738;2023-12-28T06:19:57;100982.97;;;5.89;60.00
9889;BME280;4983;42.112;24.738;2023-12-28T06:22:22;100983.63;;;7.39;55.78
9889;BME280;4983;42.112;24.738;2023-12-28T06:24:53;100965.69;;;8.40;50.78
9889;BME280;4983;42.112;24.738;2023-12-28T06:27:18;100980.44;;;9.72;47.46
9889;BME280;4983;42.112;24.738;2023-12-28T06:29:43;100979.81;;;11.11;44.61
9889;BME280;4983;42.112;24.738;2023-12-28T06:32:09;100966.84;;;12.17;40.92
9889;BME280;4983;42.112;24.738;2023-12-28T06:34:34;100981.84;;;12.94;38.71
9889;BME280;4983;42.112;24.738;2023-12-28T06:37:00;100984.78;;;13.84;36.94
9889;BME280;4983;42.112;24.738;2023-12-28T06:39:26;100985.22;;;14.53;35.50
9889;BME280;4983;42.112;24.738;2023-12-28T06:41:52;100990.78;;;15.14;35.38
9889;BME280;4983;42.112;24.738;2023-12-28T06:44:18;100991.75;;;15.76;33.35
9889;BME280;4983;42.112;24.738;2023-12-28T06:46:43;101000.63;;;16.21;32.13
9889;BME280;4983;42.112;24.738;2023-12-28T06:49:09;100990.78;;;17.33;31.11
9889;BME280;4983;42.112;24.738;2023-12-28T06:51:34;100995.13;;;18.13;29.81
9889;BME280;4983;42.112;24.738;2023-12-28T06:54:00;100999.34;;;19.19;27.34
9889;BME280;4983;42.112;24.738;2023-12-28T06:56:25;100999.94;;;19.89;27.04
9889;BME280;4983;42.112;24.738;2023-12-28T06:58:51;100995.81;;;20.67;25.20
9889;BME280;4983;42.112;24.738;2023-12-28T07:01:16;101003.56;;;21.53;24.76
9889;BME280;4983;42.112;24.738;2023-12-28T07:03:42;101003.19;;;22.00;23.43
9889;BME280;4983;42.112;24.738;2023-12-28T07:06:08;101000.22;;;22.76;23.17
9889;BME280;4983;42.112;24.738;2023-12-28T07:08:34;101001.63;;;23.28;22.19
9889;BME280;4983;42.112;24.738;2023-12-28T07:10:59;100993.91;;;23.86;22.06
9889;BME280;4983;42.112;24.738;2023-12-28T07:13:25;100994.81;;;24.27;21.25
9889;BME280;4983;42.112;24.738;2023-12-28T07:15:51;100978.63;;;24.68;19.79
9889;BME280;4983;42.112;24.738;2023-12-28T07:18:16;100984.59;;;25.05;19.61
9889;BME280;4983;42.112;24.738;2023-12-28T07:20:42;100986.72;;;25.49;19.53
9889;BME280;4983;42.112;24.738;2023-12-28T07:23:08;100982.56;;;25.69;19.08
9889;BME280;4983;42.112;24.738;2023-12-28T07:25:34;100982.56;;;25.58;18.82
9889;BME280;4983;42.112;24.738;2023-12-28T07:28:00;100983.66;;;25.57;19.51
9889;BME280;4983;42.112;24.738;2023-12-28T07:30:25;100996.09;;;25.58;19.31
9889;BME280;4983;42.112;24.738;2023-12-28T07:32:51;100989.28;;;25.67;19.89
9889;BME280;4983;42.112;24.738;2023-12-28T07:35:17;100997.16;;;25.57;19.48
9889;BME280;4983;42.112;24.738;2023-12-28T07:37:43;100987.75;;;25.59;19.88
9889;BME280;4983;42.112;24.738;2023-12-28T07:40:11;100998.56;;;25.59;18.89
9889;BME280;4983;42.112;24.738;2023-12-28T07:42:36;100993.31;;;25.53;18.96
9889;BME280;4983;42.112;24.738;2023-12-28T07:45:02;100996.38;;;24.99;20.04
9889;BME280;4983;42.112;24.738;2023-12-28T07:47:27;101002.22;;;24.73;20.32
9889;BME280;4983;42.112;24.738;2023-12-28T07:49:53;101002.16;;;24.50;20.09
9889;BME280;4983;42.112;24.738;2023-12-28T07:52:18;100996.38;;;23.87;21.67
9889;BME280;4983;42.112;24.738;2023-12-28T07:54:44;100990.63;;;23.48;21.69
9889;BME280;4983;42.112;24.738;2023-12-28T07:57:09;101001.19;;;22.82;22.74
9889;BME280;4983;42.112;24.738;2023-12-28T07:59:35;100991.25;;;22.27;23.40
9889;BME280;4983;42.112;24.738;2023-12-28T08:02:00;100997.38;;;22.03;24.20
9889;BME280;4983;42.112;24.738;2023-12-28T08:04:26;100998.72;;;21.74;24.90
9889;BME280;4983;42.112;24.738;2023-12-28T08:06:51;100984.97;;;21.45;24.54
9889;BME280;4983;42.112;24.738;2023-12-28T08:09:17;100999.94;;;20.95;26.09
9889;BME280;4983;42.112;24.738;2023-12-28T08:11:42;100997.22;;;20.76;26.90
9889;BME280;4983;42.112;24.738;2023-12-28T08:14:08;100999.50;;;20.59;26.31
9889;BME280;4983;42.112;24.738;2023-12-28T08:16:33;101007.88;;;20.17;26.82
9889;BME280;4983;42.112;24.738;2023-12-28T08:19:00;101008.44;;;19.93;26.77
9889;BME280;4983;42.112;24.738;2023-12-28T08:21:26;101000.25;;;19.67;28.38
9889;BME280;4983;42.112;24.738;2023-12-28T08:23:52;101006.97;;;19.50;28.64
9889;BME280;4983;42.112;24.738;2023-12-28T08:26:17;101003.59;;;19.35;28.36
9889;BME280;4983;42.112;24.738;2023-12-28T08:28:43;101004.84;;;19.39;29.09
9889;BME280;4983;42.112;24.738;2023-12-28T08:31:08;101000.69;;;19.30;29.10
9889;BME280;4983;42.112;24.738;2023-12-28T08:33:35;100998.69;;;18.83;30.05
9889;BME280;4983;42.112;24.738;2023-12-28T08:36:04;100996.22;;;18.61;29.90
9889;BME280;4983;42.112;24.738;2023-12-28T08:38:30;100991.91;;;18.60;30.23
9889;BME280;4983;42.112;24.738;2023-12-28T08:40:56;100988.09;;;18.48;29.64
9889;BME280;4983;42.112;24.738;2023-12-28T08:43:22;100995.44;;;18.67;30.57
9889;BME280;4983;42.112;24.738;2023-12-28T08:45:47;100993.81;;;18.45;30.56
9889;BME280;4983;42.112;24.738;2023-12-28T08:48:13;101002.88;;;18.65;30.02
9889;BME280;4983;42.112;24.738;2023-12-28T08:50:38;101003.84;;;18.64;30.51
9889;BME280;4983;42.112;24.738;2023-12-28T08:53:04;100979.69;;;18.51;31.45
9889;BME280;4983;42.112;24.738;2023-12-28T08:55:29;100979.66;;;18.72;30.47
9889;BME280;4983;42.112;24.738;2023-12-28T08:57:55;100971.50;;;18.80;30.47
9889;BME280;4983;42.112;24.738;2023-12-28T09:00:20;100971.09;;;18.83;29.92
9889;BME280;4983;42.112;24.738;2023-12-28T09:02:46;100968.44;;;18.83;30.67
9889;BME280;4983;42.112;24.738;2023-12-28T09:05:12;100971.34;;;18.88;30.12
9889;BME280;4983;42.112;24.738;2023-12-28T09:07:37;100973.81;;;18.89;30.20
9889;BME280;4983;42.112;24.738;2023-12-28T09:10:12;100965.94;;;19.15;29.66
9889;BME280;4983;42.112;24.738;2023-12-28T09:12:39;100954.84;;;19.18;29.50
9889;BME280;4983;42.112;24.738;2023-12-28T09:15:06;100948.59;;;19.05;29.63
9889;BME280;4983;42.112;24.738;2023-12-28T09:17:32;100946.63;;;19.20;29.23
9889;BME280;4983;42.112;24.738;2023-12-28T09:19:57;100948.34;;;19.27;29.11
9889;BME280;4983;42.112;24.738;2023-12-28T09:22:24;100941.81;;;19.43;28.81
9889;BME280;4983;42.112;24.738;2023-12-28T09:24:49;100924.75;;;19.50;29.94
9889;BME280;4983;42.112;24.738;2023-12-28T09:27:15;100927.91;;;19.67;31.34
9889;BME280;4983;42.112;24.738;2023-12-28T09:29:40;100924.22;;;19.74;28.41
9889;BME280;4983;42.112;24.738;2023-12-28T09:32:06;100917.09;;;19.41;29.77
9889;BME280;4983;42.112;24.738;2023-12-28T09:34:32;100908.69;;;19.57;30.58
9889;BME280;4983;42.112;24.738;2023-12-28T09:36:58;100902.78;;;19.74;30.50
9889;BME280;4983;42.112;24.738;2023-12-28T09:39:24;100896.59;;;19.74;29.90
9889;BME280;4983;42.112;24.738;2023-12-28T09:41:59;100889.22;;;20.02;29.71
9889;BME280;4983;42.112;24.738;2023-12-28T09:44:28;100880.81;;;20.31;27.46
9889;BME280;4983;42.112;24.738;2023-12-28T09:46:55;100870.28;;;20.55;26.61
9889;BME280;4983;42.112;24.738;2023-12-28T09:49:22;100867.72;;;20.87;27.88
9889;BME280;4983;42.112;24.738;2023-12-28T09:51:48;100861.81;;;21.29;26.59
9889;BME280;4983;42.112;24.738;2023-12-28T09:54:13;100861.63;;;20.47;27.00
9889;BME280;4983;42.112;24.738;2023-12-28T09:56:40;100856.47;;;21.29;26.94
9889;BME280;4983;42.112;24.738;2023-12-28T09:59:09;100858.41;;;21.90;26.01
9889;BME280;4983;42.112;24.738;2023-12-28T10:01:36;100859.88;;;22.17;25.29
9889;BME280;4983;42.112;24.738;2023-12-28T10:04:01;100848.97;;;22.30;24.85
9889;BME280;4983;42.112;24.738;2023-12-28T10:06:29;100848.53;;;22.33;24.63
9889;BME280;4983;42.112;24.738;2023-12-28T10:08:54;100837.41;;;22.54;24.25
9889;BME280;4983;42.112;24.738;2023-12-28T10:11:21;100829.38;;;22.23;24.89
9889;BME280;4983;42.112;24.738;2023-12-28T10:13:48;100821.31;;;21.99;24.83
9889;BME280;4983;42.112;24.738;2023-12-28T10:16:15;100817.66;;;22.36;24.01
9889;BME280;4983;42.112;24.738;2023-12-28T10:18:43;100817.50;;;22.73;23.45
9889;BME280;4983;42.112;24.738;2023-12-28T10:21:09;100806.47;;;22.99;23.30
9889;BME280;4983;42.112;24.738;2023-12-28T10:23:35;100809.41;;;23.09;24.38
9889;BME280;4983;42.112;24.738;2023-12-28T10:26:04;100795.25;;;23.32;23.40
9889;BME280;4983;42.112;24.738;2023-12-28T10:28:34;100800.03;;;23.60;23.99
9889;BME280;4983;42.112;24.738;2023-12-28T10:31:00;100798.88;;;22.90;23.05
9889;BME280;4983;42.112;24.738;2023-12-28T10:33:26;100797.16;;;23.32;22.37
9889;BME280;4983;42.112;24.738;2023-12-28T10:35:52;100790.53;;;23.57;22.98
9889;BME280;4983;42.112;24.738;2023-12-28T10:38:21;100787.81;;;23.46;22.24
9889;BME280;4983;42.112;24.738;2023-12-28T10:40:48;100777.41;;;22.83;23.13
9889;BME280;4983;42.112;24.738;2023-12-28T10:43:16;100787.59;;;22.63;23.82
9889;BME280;4983;42.112;24.738;2023-12-28T10:45:46;100774.19;;;22.93;23.29
9889;BME280;4983;42.112;24.738;2023-12-28T10:48:12;100775.88;;;22.76;23.11
9889;BME280;4983;42.112;24.738;2023-12-28T10:50:47;100774.75;;;22.65;23.77
9889;BME280;4983;42.112;24.738;2023-12-28T10:56:47;100757.84;;;22.58;24.04
9889;BME280;4983;42.112;24.738;2023-12-28T10:59:04;100757.09;;;22.51;24.19
9889;BME280;4983;42.112;24.738;2023-12-28T11:01:32;100757.94;;;22.45;24.80
9889;BME280;4983;42.112;24.738;2023-12-28T11:04:22;100750.69;;;22.46;24.78
9889;BME280;4983;42.112;24.738;2023-12-28T11:06:49;100745.72;;;22.49;24.72
9889;BME280;4983;42.112;24.738;2023-12-28T11:09:15;100734.53;;;22.28;24.64
9889;BME280;4983;42.112;24.738;2023-12-28T11:11:43;100736.16;;;22.29;25.27
9889;BME280;4983;42.112;24.738;2023-12-28T11:14:09;100723.69;;;22.16;24.13
9889;BME280;4983;42.112;24.738;2023-12-28T11:16:36;100726.19;;;21.93;24.80
9889;BME280;4983;42.112;24.738;2023-12-28T11:19:03;100713.34;;;21.95;24.36
9889;BME280;4983;42.112;24.738;2023-12-28T11:21:30;100718.16;;;21.38;25.25
9889;BME280;4983;42.112;24.738;2023-12-28T11:23:56;100701.59;;;21.41;24.67
9889;BME280;4983;42.112;24.738;2023-12-28T11:26:22;100702.66;;;21.02;25.11
9889;BME280;4983;42.112;24.738;2023-12-28T11:28:48;100695.56;;;21.14;26.43
9889;BME280;4983;42.112;24.738;2023-12-28T11:31:18;100694.09;;;20.81;27.24
9889;BME280;4983;42.112;24.738;2023-12-28T11:33:47;100683.69;;;20.97;26.52
9889;BME280;4983;42.112;24.738;2023-12-28T11:36:22;100682.91;;;21.21;26.00
9889;BME280;4983;42.112;24.738;2023-12-28T11:38:50;100685.63;;;21.46;25.67
9889;BME280;4983;42.112;24.738;2023-12-28T11:41:22;100688.97;;;21.66;25.66
9889;BME280;4983;42.112;24.738;2023-12-28T11:43:56;100675.06;;;21.69;25.48
9889;BME280;4983;42.112;24.738;2023-12-28T11:46:21;100671.78;;;21.42;24.16
9889;BME280;4983;42.112;24.738;2023-12-28T11:48:47;100681.09;;;21.46;26.78
9889;BME280;4983;42.112;24.738;2023-12-28T11:51:13;100675.25;;;21.49;24.60
9889;BME280;4983;42.112;24.738;2023-12-28T11:53:39;100670.63;;;21.07;24.90
9889;BME280;4983;42.112;24.738;2023-12-28T11:56:06;100668.38;;;20.98;25.59
9889;BME280;4983;42.112;24.738;2023-12-28T11:58:35;100670.56;;;21.14;25.25
9889;BME280;4983;42.112;24.738;2023-12-28T12:01:02;100656.59;;;21.30;24.83
9889;BME280;4983;42.112;24.738;2023-12-28T12:03:27;100650.41;;;21.29;25.35
9889;BME280;4983;42.112;24.738;2023-12-28T12:05:55;100660.38;;;21.47;25.71
9889;BME280;4983;42.112;24.738;2023-12-28T12:08:22;100649.69;;;21.40;25.40
9889;BME280;4983;42.112;24.738;2023-12-28T12:10:48;100654.16;;;21.28;24.94
9889;BME280;4983;42.112;24.738;2023-12-28T12:13:14;100642.38;;;20.54;26.29
9889;BME280;4983;42.112;24.738;2023-12-28T12:15:40;100634.38;;;20.41;25.07
9889;BME280;4983;42.112;24.738;2023-12-28T12:18:05;100635.19;;;20.48;26.88
9889;BME280;4983;42.112;24.738;2023-12-28T12:20:31;100641.88;;;20.70;26.80
9889;BME280;4983;42.112;24.738;2023-12-28T12:23:00;100631.72;;;20.79;25.93
9889;BME280;4983;42.112;24.738;2023-12-28T12:25:26;100643.19;;;20.61;26.58
9889;BME280;4983;42.112;24.738;2023-12-28T12:27:52;100631.81;;;20.15;26.93
9889;BME280;4983;42.112;24.738;2023-12-28T12:30:18;100628.97;;;19.97;27.63
9889;BME280;4983;42.112;24.738;2023-12-28T12:32:44;100622.56;;;20.11;27.38
9889;BME280;4983;42.112;24.738;2023-12-28T12:35:10;100621.19;;;19.63;27.57
9889;BME280;4983;42.112;24.738;2023-12-28T12:37:37;100609.00;;;19.80;28.07
9889;BME280;4983;42.112;24.738;2023-12-28T12:40:03;100627.91;;;20.11;26.43
9889;BME280;4983;42.112;24.738;2023-12-28T12:42:31;100623.16;;;20.19;26.98
9889;BME280;4983;42.112;24.738;2023-12-28T12:44:57;100622.69;;;20.22;26.04
9889;BME280;4983;42.112;24.738;2023-12-28T12:47:23;100614.50;;;19.98;26.82
9889;BME280;4983;42.112;24.738;2023-12-28T12:49:51;100618.00;;;20.05;26.19
9889;BME280;4983;42.112;24.738;2023-12-28T12:52:16;100610.88;;;19.53;26.64
9889;BME280;4983;42.112;24.738;2023-12-28T12:54:42;100602.25;;;19.38;27.22
9889;BME280;4983;42.112;24.738;2023-12-28T12:57:08;100611.75;;;19.34;27.67
9889;BME280;4983;42.112;24.738;2023-12-28T12:59:33;100598.13;;;19.55;28.23
9889;BME280;4983;42.112;24.738;2023-12-28T13:02:00;100592.56;;;19.50;28.17
9889;BME280;4983;42.112;24.738;2023-12-28T13:04:26;100600.78;;;19.03;28.17